INFORMAÇÕES METEOROLÓGICAS
METAR FOR PADK
ADDS - METARS form results

(2109 UTC 16 June 2019)
Data provider http://aviationweather.gov/metar/data/
 
METAR text: PADK 162056Z AUTO 35015G22KT 1 3/4SM BR OVC006 08/07 A2984 RMK AO2 RAE37 SLP104 P0000 60000 T00830072 51012
Conditions at: PADK (ADAK NAS , AK, US) observed 2056 UTC 16 June 2019
Temperature: 8.3°C (47°F)
Dewpoint: 7.2°C (45°F) [RH = 93%]
Pressure (altimeter): 29.84 inches Hg (1010.6 mb)
[Sea-level pressure: 1010.4 mb]
Winds: from the N (350 degrees) at 17 MPH (15 knots; 7.7 m/s)
gusting to 25 MPH (22 knots; 11.3 m/s)
Visibility: 1.75 miles (2.82 km)
Ceiling: 600 feet AGL
Clouds: overcast cloud deck at 600 feet AGL
Weather: BR  (mist)

 MAPA DO AEROPORTO

 INFORMAÇÕES DA PISTA
Pista 05 Tamanho da pista 7790 ft Largura da pista 200 ft
Elevação da pista 17 ft Ranhura da pista 0 ft Proa da pista 61
Pista 23 Tamanho da pista 7790 ft Largura da pista 200 ft
Elevação da pista 15 ft Ranhura da pista 0 ft Proa da pista 241
Pista 18 Tamanho da pista 7605 ft Largura da pista 200 ft
Elevação da pista 6 ft Ranhura da pista 0 ft Proa da pista 185
Pista 36 Tamanho da pista 7605 ft Largura da pista 200 ft
Elevação da pista 4 ft Ranhura da pista 0 ft Proa da pista 5

 FREQUÊNCIAS DO AEROPORTO

 AUXÍLIOS DE NAVEGAÇÃO PRÓXIMOS AO AEROPORTO
Tipo NDB-DME Nome Mount Moffett Frequência 530 KHZ
Tipo TACAN Nome Adak Frequência 113000 KHZ



Powered by Mercosul Lnhas Aereas